Aérodrome :
LOGIN :

S'inscrire | Disclaimer

   EN    FR    IT 

 










Légende :    VFR   VFR Marginal   IFR   IFR Intensif   IFR Très Intensif
Visi : 
Plafond : 
>= 8 km
>= 3000ft
5 à 8 km
1000 à 3000 ft
1500m à 5 km
500 à 1000 ft
800 à 1500m
200 à 500 ft
< 800m
< 200 ft
Symboles :   Orages  Brouillard  Fortes neiges  Fortes précipitations  Vent > 20 kt
SIGMETs :   Divers  Orages  Givrage  Turbulence  Onde Orograph.  Cendres Volcan.






- Altitude de l'aérodrome : 791 ft
- Code IATA : KRK


EPKK - Krakow-Balice

DERNIER METAR :
  • 141330Z 07006KT 9999 BKN013 07/04 Q1013

METARs EXPIRÉS :
  • 141230Z 05005KT 9999 BKN012 06/04 Q1013
  • 141200Z 08005KT 9999 BKN015 07/04 Q1013
  • 141130Z 07005KT 040V100 9999 BKN016 07/03 Q1013
  • 141100Z 06003KT 350V090 9999 FEW015 07/03 Q1012

TAF TAF EPKK
Valide du 14 à 12h jusqu'au 15 à 12h UTC


141130Z 1412/1512 12008KT 9999 BKN020
TEMPO 1412/1417 BKN013
BECMG 1417/1420 4000 BR BKN007
BECMG 1420/1422 1500 BR BKN004
TEMPO 1422/1508 0200 FG BKN001



MET'MAP, la Météo Aéronautique d'un coup d'oeil ! - Copyright ORBIFLY Décembre 2007 - Disclaimer

ORBIFLY MET'MAP TEAM :

Programmation & Développement : Alexandra Zaïnal
Conception & Développement : Baudouin d'Aumeries
Co-Programmation & Développement : Marc-Olivier Méhu
Soutien technique & logistique : Manuel Goepfert

Contact : metmap@orbifly.com




SOURCES & CREDITS :

   NOAA